KMGJ

Orange County Airport

Montgomery, New York, USA
METAR KMGJ 232209Z AUTO 00000KT 2SM -RA BR OVC005 01/01 A3033 RMK AO2 P0004 T00110006
Observed Flight Rules
Feb-23 @ 22:09 UTC (29 minutes ago) Instrument Flight Rules
Wind Visibility Clouds Conditions
Calm 2 miles
  • Overcast at 500' AGL
  • Light Rain
  • Mist
Temperatures Readings Precipitation
Current 1°C / 34°F
Dewpoint 1°C / 34°F
Humidity 100%
Altimeter 30.33" Hg
Pressure 1027 hPa
Elevation 108
Current Rain 0.04
METAR KMGJ 232209Z AUTO 00000KT 2SM -RA BR OVC005 01/01 A3033 RMK AO2 P0004 T00110006
Observed Flight Rules
Feb-23 @ 22:09 UTC
(29 minutes ago)
IFR
Wind Visibility
Calm 2 miles
Clouds
  • Overcast at 500' AGL
Conditions
  • Light Rain
  • Mist
Temperature Dewpoint
1°C / 34°F 1°C / 34°F
Humidity Altimeter Pressure
100% 30.33" Hg 1027 hPa
Current Rain
0.04